Veselaja Gorka, Russia
Current Conditions -  °F | °C
As of 7:30 AM on Saturday 25 Oct 2014 (Local Time) from UHHH Reporting Station
Haze Haze  
Wind Chill: 24°   Ceiling: 500
Heat Index: 34°   Visibility: 3mi
Dew Point: 34°   Wind: 13mph
Humidity: 100%   Direction: 20°NNE
Pressure: 29.85"   Gusts: NA
Location:  52.28°N, 135.8°E
Report Text: UHHH 242130Z 02006MPS 5000 BR BKN005 OVC022CB 01/01 Q1011 NOSIGRMK QBB150 OBST OBSC QFE752/1002 600-800 55290045
Loading
Personal Weather Stations






























Interactive Weather Map
Tropical Storm Tracking
New forecast layout! Learn more

10-Day Weather Forecast

Advertisements
Track Severe Weather on mobile